createdAt,value
2023-02-09T00:00:21.286Z,-5.84
2023-02-09T00:02:47.897Z,-5.91
2023-02-09T00:05:14.469Z,-6.00
2023-02-09T00:07:41.011Z,-6.05
2023-02-09T00:10:08.202Z,-5.92
2023-02-09T00:12:55.476Z,-5.98
2023-02-09T00:15:22.047Z,-6.31
2023-02-09T00:17:48.580Z,-6.41
2023-02-09T00:20:15.160Z,-6.01
2023-02-09T00:22:41.690Z,-5.88
2023-02-09T00:25:08.388Z,-5.83
2023-02-09T00:27:35.854Z,-5.67
2023-02-09T00:30:02.760Z,-5.63
2023-02-09T00:32:32.115Z,-5.55
2023-02-09T00:34:58.729Z,-5.59
2023-02-09T00:37:25.282Z,-5.58
2023-02-09T00:39:51.838Z,-5.88
2023-02-09T00:42:18.428Z,-6.08
2023-02-09T00:44:46.034Z,-6.22
2023-02-09T00:47:12.645Z,-6.33
2023-02-09T00:49:40.253Z,-6.44
2023-02-09T00:52:09.576Z,-6.41
2023-02-09T00:54:36.504Z,-6.50
2023-02-09T00:57:05.855Z,-6.21
2023-02-09T00:59:34.850Z,-5.94
2023-02-09T01:02:02.406Z,-6.05
2023-02-09T01:04:30.183Z,-5.90
2023-02-09T01:06:56.888Z,-5.86
2023-02-09T01:09:24.292Z,-5.90
2023-02-09T01:11:51.196Z,-5.92
2023-02-09T01:14:18.064Z,-5.90
2023-02-09T01:16:44.751Z,-5.80
2023-02-09T01:19:13.675Z,-5.75
2023-02-09T01:21:41.175Z,-5.70
2023-02-09T01:24:12.047Z,-5.72
2023-02-09T01:26:38.730Z,-5.75
2023-02-09T01:29:05.316Z,-5.81
2023-02-09T01:31:35.717Z,-5.81
2023-02-09T01:34:04.926Z,-5.96
2023-02-09T01:36:32.869Z,-6.05
2023-02-09T01:39:01.803Z,-6.21
2023-02-09T01:41:28.809Z,-6.41
2023-02-09T01:44:01.253Z,-6.59
2023-02-09T01:46:30.906Z,-6.83
2023-02-09T01:49:05.164Z,-6.76
2023-02-09T01:51:36.692Z,-6.95
2023-02-09T01:54:09.510Z,-6.99
2023-02-09T01:56:38.817Z,-7.04
2023-02-09T01:59:05.585Z,-7.00
2023-02-09T02:01:32.228Z,-7.05
2023-02-09T02:03:59.268Z,-7.19
2023-02-09T02:06:26.109Z,-7.29
2023-02-09T02:08:58.820Z,-7.25
2023-02-09T02:11:28.243Z,-7.36
2023-02-09T02:13:54.784Z,-7.80
2023-02-09T02:16:36.438Z,-7.81
2023-02-09T02:19:21.416Z,-7.70
2023-02-09T02:21:56.982Z,-7.68
2023-02-09T02:24:29.375Z,-7.73
2023-02-09T02:27:00.959Z,-7.71
2023-02-09T02:29:52.240Z,-7.53
2023-02-09T02:32:27.742Z,-7.25
2023-02-09T02:35:05.300Z,-7.11
2023-02-09T02:37:47.248Z,-7.09
2023-02-09T02:40:19.628Z,-7.17
2023-02-09T02:42:55.893Z,-7.17
2023-02-09T02:45:29.377Z,-7.61
2023-02-09T02:48:18.890Z,-7.64
2023-02-09T02:51:02.115Z,-7.69
2023-02-09T02:53:32.065Z,-7.72
2023-02-09T02:56:01.868Z,-7.67
2023-02-09T02:58:29.787Z,-7.70
2023-02-09T03:01:00.530Z,-7.83
2023-02-09T03:03:32.152Z,-7.77
2023-02-09T03:06:02.870Z,-7.83
2023-02-09T03:08:29.503Z,-7.90
2023-02-09T03:10:56.798Z,-7.97
2023-02-09T03:13:36.564Z,-8.05
2023-02-09T03:16:20.765Z,-7.99
2023-02-09T03:19:04.006Z,-8.06
2023-02-09T03:21:46.796Z,-8.15
2023-02-09T03:24:30.738Z,-8.19
2023-02-09T03:27:02.986Z,-8.29
2023-02-09T03:29:31.766Z,-8.29
2023-02-09T03:31:58.755Z,-8.36
2023-02-09T03:34:26.516Z,-8.40
2023-02-09T03:36:56.229Z,-8.69
2023-02-09T03:39:22.905Z,-8.90
2023-02-09T03:41:49.479Z,-8.80
2023-02-09T03:44:28.171Z,-8.65
2023-02-09T03:47:03.257Z,-8.86
2023-02-09T03:49:35.886Z,-8.75
2023-02-09T03:52:03.713Z,-8.87
2023-02-09T03:54:31.448Z,-8.75
2023-02-09T03:56:59.117Z,-8.72
2023-02-09T03:59:26.871Z,-8.72
2023-02-09T04:01:57.896Z,-8.65
2023-02-09T04:04:25.769Z,-8.62
2023-02-09T04:06:52.925Z,-8.63
2023-02-09T04:09:19.995Z,-8.61
2023-02-09T04:11:47.292Z,-8.66
2023-02-09T04:14:14.498Z,-8.77
2023-02-09T04:16:41.477Z,-9.14
2023-02-09T04:19:09.780Z,-9.08
2023-02-09T04:21:37.761Z,-9.00
2023-02-09T04:24:04.931Z,-9.09
2023-02-09T04:26:31.708Z,-9.02
2023-02-09T04:28:58.429Z,-9.03
2023-02-09T04:31:25.135Z,-9.01
2023-02-09T04:33:52.980Z,-8.99
2023-02-09T04:36:19.617Z,-8.92
2023-02-09T04:38:46.156Z,-8.82
2023-02-09T04:41:12.793Z,-8.77
2023-02-09T04:43:39.310Z,-8.66
2023-02-09T04:46:06.009Z,-8.60
2023-02-09T04:48:32.758Z,-8.50
2023-02-09T04:50:59.323Z,-8.46
2023-02-09T04:53:25.951Z,-8.80
2023-02-09T04:55:53.106Z,-9.44
2023-02-09T04:58:39.456Z,-9.24
2023-02-09T05:01:07.231Z,-9.12
2023-02-09T05:03:34.356Z,-8.94
2023-02-09T05:06:04.228Z,-8.63
2023-02-09T05:08:31.057Z,-8.36
2023-02-09T05:10:57.810Z,-8.22
2023-02-09T05:13:25.613Z,-8.20
2023-02-09T05:15:52.861Z,-8.17
2023-02-09T05:18:19.502Z,-8.14
2023-02-09T05:20:47.912Z,-8.10
2023-02-09T05:23:14.617Z,-8.06
2023-02-09T05:25:41.201Z,-8.08
2023-02-09T05:28:08.015Z,-8.44
2023-02-09T05:30:35.014Z,-8.53
2023-02-09T05:33:03.167Z,-8.49
2023-02-09T05:35:29.758Z,-8.63
2023-02-09T05:37:56.299Z,-8.61
2023-02-09T05:40:22.851Z,-8.50
2023-02-09T05:42:49.393Z,-8.49
2023-02-09T05:45:16.237Z,-8.46
2023-02-09T05:47:42.836Z,-8.44
2023-02-09T05:50:09.682Z,-8.57
2023-02-09T05:52:36.288Z,-8.48
2023-02-09T05:55:02.818Z,-8.52
2023-02-09T05:57:29.385Z,-8.63
2023-02-09T05:59:57.027Z,-8.60
2023-02-09T06:02:23.666Z,-8.74
2023-02-09T06:04:50.279Z,-8.82
2023-02-09T06:07:16.855Z,-8.71
2023-02-09T06:09:43.568Z,-8.85
2023-02-09T06:12:10.098Z,-9.12
2023-02-09T06:14:36.719Z,-9.05
2023-02-09T06:17:03.589Z,-9.16
2023-02-09T06:19:30.757Z,-9.05
2023-02-09T06:21:57.561Z,-9.30
2023-02-09T06:24:24.444Z,-9.21
2023-02-09T06:26:51.005Z,-8.95
2023-02-09T06:29:17.631Z,-8.99
2023-02-09T06:31:44.600Z,-8.93
2023-02-09T06:34:11.330Z,-8.68
2023-02-09T06:36:37.977Z,-8.62
2023-02-09T06:39:09.306Z,-8.58
2023-02-09T06:41:36.410Z,-8.42
2023-02-09T06:44:03.379Z,-8.31
2023-02-09T06:46:30.058Z,-8.43
2023-02-09T06:48:57.627Z,-8.17
2023-02-09T06:51:26.020Z,-8.00
2023-02-09T06:53:52.854Z,-7.95
2023-02-09T06:56:20.345Z,-7.73
2023-02-09T06:58:47.078Z,-7.56
2023-02-09T07:01:18.031Z,-7.37
2023-02-09T07:03:45.038Z,-7.15
2023-02-09T07:06:17.626Z,-6.99
2023-02-09T07:08:44.896Z,-6.87
2023-02-09T07:11:14.335Z,-6.61
2023-02-09T07:13:41.232Z,-6.37
2023-02-09T07:16:09.706Z,-6.26
2023-02-09T07:18:36.731Z,-6.07
2023-02-09T07:21:06.727Z,-5.90
2023-02-09T07:23:33.716Z,-5.79
2023-02-09T07:26:10.479Z,-5.64
2023-02-09T07:28:37.482Z,-5.45
2023-02-09T07:31:07.467Z,-5.26
2023-02-09T07:33:35.092Z,-5.00
2023-02-09T07:36:06.542Z,-4.81
2023-02-09T07:38:33.564Z,-4.64
2023-02-09T07:41:01.302Z,-4.46
2023-02-09T07:43:28.523Z,-4.26
2023-02-09T07:46:03.732Z,-4.15
2023-02-09T07:48:30.945Z,-3.94
2023-02-09T07:50:57.826Z,-3.86
2023-02-09T07:53:24.837Z,-3.69
2023-02-09T07:55:51.419Z,-3.55
2023-02-09T07:58:19.947Z,-3.36
2023-02-09T08:00:47.969Z,-3.22
2023-02-09T08:03:17.317Z,-3.03
2023-02-09T08:06:07.766Z,-2.92
2023-02-09T08:08:34.342Z,-2.90
2023-02-09T08:11:02.202Z,-2.83
2023-02-09T08:13:34.040Z,-2.66
2023-02-09T08:16:04.942Z,-2.58
2023-02-09T08:18:42.509Z,-2.32
2023-02-09T08:21:13.535Z,-2.23
2023-02-09T08:23:42.441Z,-2.23
2023-02-09T08:26:11.155Z,-2.13
2023-02-09T08:28:44.478Z,-2.07
2023-02-09T08:31:16.969Z,-2.01
2023-02-09T08:33:45.078Z,-2.13
2023-02-09T08:36:13.174Z,-1.96
2023-02-09T08:38:39.908Z,-1.78
2023-02-09T08:41:08.304Z,-1.64
2023-02-09T08:43:35.666Z,-1.65
2023-02-09T08:46:11.118Z,-1.52
2023-02-09T08:48:40.653Z,-1.46
2023-02-09T08:51:08.674Z,-1.24
2023-02-09T08:53:35.841Z,-1.08
2023-02-09T08:56:02.516Z,-1.07
2023-02-09T08:58:30.259Z,-1.04
2023-02-09T09:00:57.383Z,-0.86
2023-02-09T09:03:30.012Z,-0.67
2023-02-09T09:06:01.682Z,-0.64
2023-02-09T09:08:29.370Z,-0.36
2023-02-09T09:10:56.021Z,-0.33
2023-02-09T09:13:24.393Z,-0.20
2023-02-09T09:15:51.235Z,-0.10
2023-02-09T09:18:18.246Z,0.09
2023-02-09T09:20:44.782Z,0.07
2023-02-09T09:23:11.778Z,0.07
2023-02-09T09:25:39.744Z,-0.01
2023-02-09T09:28:07.278Z,-0.01
2023-02-09T09:30:34.166Z,0.16
2023-02-09T09:33:01.360Z,0.26
2023-02-09T09:35:28.667Z,0.30
2023-02-09T09:37:58.762Z,0.45
2023-02-09T09:40:29.442Z,0.30
2023-02-09T09:43:02.266Z,0.40
2023-02-09T09:45:31.434Z,0.41
2023-02-09T09:47:58.172Z,0.45
2023-02-09T09:50:33.484Z,0.41
2023-02-09T09:53:23.761Z,0.59
2023-02-09T09:55:55.241Z,0.65
2023-02-09T09:58:22.509Z,0.71
2023-02-09T10:00:50.269Z,0.81
2023-02-09T10:03:20.013Z,0.78
2023-02-09T10:05:52.159Z,0.92
2023-02-09T10:08:30.338Z,1.07
2023-02-09T10:11:04.285Z,0.96
2023-02-09T10:13:35.546Z,0.94
2023-02-09T10:16:02.699Z,0.97
2023-02-09T10:18:33.184Z,1.04
2023-02-09T10:21:04.773Z,1.07
2023-02-09T10:23:43.905Z,1.08
2023-02-09T10:26:10.969Z,1.10
2023-02-09T10:28:50.170Z,1.20
2023-02-09T10:31:25.308Z,1.22
2023-02-09T10:34:04.070Z,1.31
2023-02-09T10:36:32.223Z,1.27
2023-02-09T10:39:19.769Z,1.37
2023-02-09T10:41:53.631Z,1.34
2023-02-09T10:44:35.593Z,1.43
2023-02-09T10:47:27.194Z,1.48
2023-02-09T10:50:15.485Z,1.54
2023-02-09T10:52:55.337Z,1.63
2023-02-09T10:55:36.034Z,1.60
2023-02-09T10:58:11.759Z,1.60
2023-02-09T11:00:41.394Z,1.76
2023-02-09T11:03:18.326Z,1.53
2023-02-09T11:05:47.733Z,1.67
2023-02-09T11:08:22.995Z,1.95
2023-02-09T11:11:13.368Z,1.77
2023-02-09T11:13:40.976Z,1.81
2023-02-09T11:16:11.884Z,1.92
2023-02-09T11:18:42.572Z,2.01
2023-02-09T11:21:12.000Z,2.11
2023-02-09T11:24:17.090Z,1.92
2023-02-09T11:27:06.167Z,2.19
2023-02-09T11:29:53.034Z,2.06
2023-02-09T11:32:50.235Z,1.89
2023-02-09T11:35:19.137Z,2.11
2023-02-09T11:38:01.676Z,2.12
2023-02-09T11:40:42.749Z,1.88
2023-02-09T11:43:41.174Z,1.94
2023-02-09T11:46:21.246Z,2.41
2023-02-09T11:49:00.499Z,2.44
2023-02-09T11:51:27.384Z,2.36
2023-02-09T11:54:16.425Z,2.33
2023-02-09T11:56:47.234Z,2.46
2023-02-09T11:59:34.690Z,2.35
2023-02-09T12:02:26.135Z,2.36
2023-02-09T12:05:01.131Z,2.44
2023-02-09T12:07:27.665Z,2.13
2023-02-09T12:10:18.958Z,2.41
2023-02-09T12:12:50.709Z,2.49
2023-02-09T12:15:21.755Z,2.57
2023-02-09T12:17:56.457Z,2.36
2023-02-09T12:20:25.987Z,2.30
2023-02-09T12:23:07.873Z,2.33
2023-02-09T12:25:51.265Z,1.92
2023-02-09T12:28:39.870Z,2.36
2023-02-09T12:31:22.499Z,2.28
2023-02-09T12:33:49.120Z,2.28
2023-02-09T12:36:16.164Z,2.20
2023-02-09T12:38:49.321Z,2.07
2023-02-09T12:41:17.963Z,2.20
2023-02-09T12:43:45.719Z,2.10
2023-02-09T12:46:31.092Z,2.17
2023-02-09T12:49:12.400Z,2.29
2023-02-09T12:51:54.484Z,2.21
2023-02-09T12:54:48.229Z,2.05
2023-02-09T12:57:14.735Z,1.92
2023-02-09T12:59:50.776Z,2.13
2023-02-09T13:02:35.714Z,2.13
2023-02-09T13:05:14.448Z,2.28
2023-02-09T13:07:54.313Z,2.44
2023-02-09T13:10:39.322Z,2.53
2023-02-09T13:13:11.895Z,2.50
2023-02-09T13:15:53.091Z,2.49
2023-02-09T13:18:25.465Z,2.35
2023-02-09T13:21:17.826Z,2.06
2023-02-09T13:24:00.718Z,2.14
2023-02-09T13:26:32.654Z,2.41
2023-02-09T13:29:19.988Z,2.31
2023-02-09T13:31:54.806Z,2.11
2023-02-09T13:34:27.517Z,2.07
2023-02-09T13:37:12.643Z,2.07
2023-02-09T13:39:44.201Z,2.18
2023-02-09T13:42:26.370Z,2.06
2023-02-09T13:44:56.610Z,1.92
2023-02-09T13:47:24.081Z,2.04
2023-02-09T13:50:02.837Z,1.81
2023-02-09T13:52:36.910Z,1.87
2023-02-09T13:55:17.695Z,1.76
2023-02-09T13:58:07.196Z,1.89
2023-02-09T14:00:43.792Z,1.90
2023-02-09T14:03:25.417Z,1.83
2023-02-09T14:06:01.037Z,1.93
2023-02-09T14:08:29.831Z,1.60
2023-02-09T14:11:06.724Z,1.61
2023-02-09T14:13:46.642Z,1.62
2023-02-09T14:16:17.888Z,1.58
2023-02-09T14:18:56.532Z,1.49
2023-02-09T14:21:28.171Z,1.48
2023-02-09T14:23:58.157Z,1.45
2023-02-09T14:26:28.878Z,1.48
2023-02-09T14:29:23.541Z,1.51
2023-02-09T14:31:53.612Z,1.42
2023-02-09T14:34:23.143Z,1.43
2023-02-09T14:36:55.152Z,1.46
2023-02-09T14:39:22.683Z,1.41
2023-02-09T14:42:00.849Z,1.31
2023-02-09T14:44:27.884Z,1.26
2023-02-09T14:46:57.279Z,1.17
2023-02-09T14:49:25.802Z,1.14
2023-02-09T14:52:15.016Z,1.04
2023-02-09T14:54:50.220Z,1.03
2023-02-09T14:57:17.009Z,1.00
2023-02-09T14:59:43.732Z,1.05
2023-02-09T15:02:19.362Z,1.00
2023-02-09T15:04:46.060Z,0.89
2023-02-09T15:07:17.881Z,0.92
2023-02-09T15:09:45.264Z,0.86
2023-02-09T15:12:24.611Z,0.89
2023-02-09T15:14:53.906Z,0.77
2023-02-09T15:17:27.886Z,0.66
2023-02-09T15:19:55.604Z,0.65
2023-02-09T15:22:22.584Z,0.57
2023-02-09T15:24:53.287Z,0.53
2023-02-09T15:27:32.541Z,0.47
2023-02-09T15:30:01.691Z,0.46
2023-02-09T15:32:29.615Z,0.31
2023-02-09T15:34:56.411Z,0.23
2023-02-09T15:37:31.746Z,0.15
2023-02-09T15:40:14.916Z,0.09
2023-02-09T15:43:00.569Z,0.04
2023-02-09T15:45:48.274Z,-0.09
2023-02-09T15:48:15.468Z,-0.18
2023-02-09T15:50:47.768Z,-0.27
2023-02-09T15:53:22.021Z,-0.30
2023-02-09T15:55:48.767Z,-0.36
2023-02-09T15:58:19.127Z,-0.49
2023-02-09T16:00:46.265Z,-0.58
2023-02-09T16:03:21.188Z,-0.74
2023-02-09T16:05:50.753Z,-0.78
2023-02-09T16:08:17.278Z,-0.84
2023-02-09T16:10:46.151Z,-0.96
2023-02-09T16:13:14.814Z,-1.05
2023-02-09T16:15:41.480Z,-1.12
2023-02-09T16:18:08.073Z,-1.19
2023-02-09T16:20:34.738Z,-1.26
2023-02-09T16:23:11.693Z,-1.27
2023-02-09T16:25:42.088Z,-1.35
2023-02-09T16:28:13.591Z,-1.38
2023-02-09T16:30:54.406Z,-1.40
2023-02-09T16:33:22.367Z,-1.45
2023-02-09T16:36:01.478Z,-1.50
2023-02-09T16:38:29.792Z,-1.81
2023-02-09T16:40:56.594Z,-1.92
2023-02-09T16:43:23.985Z,-1.89
2023-02-09T16:46:02.817Z,-1.90
2023-02-09T16:48:32.411Z,-1.99
2023-02-09T16:50:59.442Z,-2.00
2023-02-09T16:53:32.739Z,-2.00
2023-02-09T16:56:01.401Z,-2.09
2023-02-09T16:58:28.992Z,-2.12
2023-02-09T17:00:55.691Z,-2.23
2023-02-09T17:03:34.755Z,-2.28
2023-02-09T17:06:02.413Z,-2.27
2023-02-09T17:08:34.860Z,-2.38
2023-02-09T17:11:03.144Z,-2.34
2023-02-09T17:13:30.942Z,-2.37
2023-02-09T17:16:03.842Z,-2.44
2023-02-09T17:18:38.823Z,-2.53
2023-02-09T17:21:22.524Z,-2.76
2023-02-09T17:23:49.870Z,-2.66
2023-02-09T17:26:16.557Z,-2.64
2023-02-09T17:28:43.279Z,-2.60
2023-02-09T17:31:17.716Z,-2.60
2023-02-09T17:33:47.642Z,-2.84
2023-02-09T17:36:30.655Z,-3.30
2023-02-09T17:39:00.170Z,-3.47
2023-02-09T17:41:40.830Z,-3.34
2023-02-09T17:44:32.065Z,-3.36
2023-02-09T17:47:07.269Z,-3.27
2023-02-09T17:49:34.268Z,-3.23
2023-02-09T17:52:01.010Z,-3.20
2023-02-09T17:54:27.959Z,-3.25
2023-02-09T17:56:54.614Z,-3.26
2023-02-09T17:59:21.388Z,-3.34
2023-02-09T18:01:55.165Z,-3.72
2023-02-09T18:04:28.786Z,-4.06
2023-02-09T18:06:57.617Z,-3.99
2023-02-09T18:09:24.549Z,-3.79
2023-02-09T18:11:51.090Z,-3.77
2023-02-09T18:14:19.325Z,-3.91
2023-02-09T18:16:47.773Z,-3.85
2023-02-09T18:19:16.068Z,-3.88
2023-02-09T18:21:54.647Z,-4.35
2023-02-09T18:24:23.035Z,-4.47
2023-02-09T18:26:52.451Z,-4.40
2023-02-09T18:29:23.880Z,-4.36
2023-02-09T18:31:51.192Z,-4.26
2023-02-09T18:34:17.894Z,-4.24
2023-02-09T18:36:44.410Z,-4.69
2023-02-09T18:39:11.000Z,-5.00
2023-02-09T18:41:58.104Z,-4.60
2023-02-09T18:44:29.016Z,-4.53
2023-02-09T18:46:57.678Z,-4.35
2023-02-09T18:49:24.205Z,-4.33
2023-02-09T18:51:52.243Z,-4.41
2023-02-09T18:54:22.459Z,-4.85
2023-02-09T18:56:50.446Z,-5.00
2023-02-09T18:59:17.830Z,-4.84
2023-02-09T19:01:45.279Z,-4.70
2023-02-09T19:04:12.835Z,-4.61
2023-02-09T19:06:39.774Z,-4.92
2023-02-09T19:09:06.595Z,-5.11
2023-02-09T19:11:35.319Z,-5.09
2023-02-09T19:14:20.529Z,-5.08
2023-02-09T19:16:47.179Z,-4.98
2023-02-09T19:19:14.044Z,-5.06
2023-02-09T19:21:40.791Z,-5.37
2023-02-09T19:24:07.591Z,-5.59
2023-02-09T19:26:34.189Z,-5.52
2023-02-09T19:29:00.883Z,-5.40
2023-02-09T19:31:27.642Z,-5.41
2023-02-09T19:33:57.661Z,-5.29
2023-02-09T19:36:25.242Z,-5.60
2023-02-09T19:38:52.674Z,-6.10
2023-02-09T19:41:20.652Z,-6.04
2023-02-09T19:43:48.433Z,-5.86
2023-02-09T19:46:15.091Z,-5.83
2023-02-09T19:51:08.987Z,-5.68
2023-02-09T19:53:37.328Z,-5.60
2023-02-09T19:56:06.122Z,-5.56
2023-02-09T19:58:35.271Z,-5.74
2023-02-09T20:01:03.432Z,-6.10
2023-02-09T20:03:34.510Z,-6.30
2023-02-09T20:06:02.373Z,-6.46
2023-02-09T20:08:30.740Z,-6.21
2023-02-09T20:10:58.306Z,-6.12
2023-02-09T20:13:26.561Z,-5.99
2023-02-09T20:15:53.446Z,-5.91
2023-02-09T20:18:20.351Z,-6.04
2023-02-09T20:20:47.579Z,-5.98
2023-02-09T20:23:15.876Z,-5.91
2023-02-09T20:25:44.649Z,-6.14
2023-02-09T20:28:13.579Z,-6.60
2023-02-09T20:30:42.523Z,-6.60
2023-02-09T20:33:14.167Z,-6.65
2023-02-09T20:35:43.147Z,-6.70
2023-02-09T20:38:10.233Z,-6.99
2023-02-09T20:40:37.379Z,-6.91
2023-02-09T20:43:22.561Z,-6.82
2023-02-09T20:46:07.849Z,-6.70
2023-02-09T20:48:34.642Z,-6.58
2023-02-09T20:51:02.363Z,-6.54
2023-02-09T20:53:29.969Z,-6.79
2023-02-09T20:55:58.599Z,-7.09
2023-02-09T20:58:25.526Z,-6.91
2023-02-09T21:00:52.461Z,-6.74
2023-02-09T21:03:19.527Z,-6.58
2023-02-09T21:05:46.069Z,-6.60
2023-02-09T21:08:12.679Z,-7.04
2023-02-09T21:10:39.438Z,-7.18
2023-02-09T21:13:07.717Z,-7.06
2023-02-09T21:15:38.413Z,-6.90
2023-02-09T21:18:06.772Z,-6.83
2023-02-09T21:20:35.074Z,-6.75
2023-02-09T21:23:02.835Z,-7.19
2023-02-09T21:25:30.251Z,-7.41
2023-02-09T21:27:59.384Z,-7.15
2023-02-09T21:30:29.288Z,-7.02
2023-02-09T21:32:56.012Z,-6.93
2023-02-09T21:35:22.850Z,-6.86
2023-02-09T21:37:49.377Z,-7.51
2023-02-09T21:40:16.307Z,-7.60
2023-02-09T21:42:43.066Z,-7.42
2023-02-09T21:45:09.867Z,-7.40
2023-02-09T21:47:39.085Z,-7.46
2023-02-09T21:50:08.107Z,-7.62
2023-02-09T21:52:34.847Z,-7.45
2023-02-09T21:55:01.624Z,-7.29
2023-02-09T21:57:28.294Z,-7.29
2023-02-09T21:59:55.346Z,-7.20
2023-02-09T22:02:22.061Z,-7.15
2023-02-09T22:04:50.273Z,-7.14
2023-02-09T22:07:16.911Z,-7.58
2023-02-09T22:09:43.522Z,-7.62
2023-02-09T22:12:10.210Z,-7.43
2023-02-09T22:14:37.006Z,-7.32
2023-02-09T22:17:03.571Z,-7.29
2023-02-09T22:19:30.300Z,-7.65
2023-02-09T22:21:58.140Z,-7.79
2023-02-09T22:24:25.289Z,-7.59
2023-02-09T22:26:51.981Z,-7.47
2023-02-09T22:29:19.162Z,-7.39
2023-02-09T22:31:45.841Z,-7.99
2023-02-09T22:34:12.528Z,-8.14
2023-02-09T22:36:39.925Z,-8.02
2023-02-09T22:39:07.465Z,-8.01
2023-02-09T22:41:34.402Z,-8.03
2023-02-09T22:44:08.045Z,-7.98
2023-02-09T22:46:37.753Z,-7.78
2023-02-09T22:49:07.688Z,-7.58
2023-02-09T22:51:35.138Z,-7.57
2023-02-09T22:54:02.746Z,-8.03
2023-02-09T22:56:30.038Z,-8.06
2023-02-09T22:58:58.592Z,-8.09
2023-02-09T23:01:25.726Z,-8.12
2023-02-09T23:03:52.474Z,-8.01
2023-02-09T23:06:23.320Z,-7.95
2023-02-09T23:08:53.856Z,-8.17
2023-02-09T23:11:22.315Z,-8.28
2023-02-09T23:13:51.088Z,-8.25
2023-02-09T23:16:24.175Z,-8.14
2023-02-09T23:18:59.366Z,-8.30
2023-02-09T23:21:29.667Z,-8.25
2023-02-09T23:23:56.360Z,-8.15
2023-02-09T23:26:23.400Z,-7.99
2023-02-09T23:28:57.027Z,-7.81
2023-02-09T23:31:25.648Z,-7.74
2023-02-09T23:33:52.858Z,-7.71
2023-02-09T23:36:26.293Z,-7.69
2023-02-09T23:38:55.489Z,-7.64
2023-02-09T23:41:22.601Z,-7.66
2023-02-09T23:43:49.776Z,-7.63
2023-02-09T23:46:20.289Z,-7.66
2023-02-09T23:48:47.984Z,-7.67
2023-02-09T23:51:18.427Z,-7.68
2023-02-09T23:53:46.567Z,-8.31
2023-02-09T23:56:14.850Z,-8.68
2023-02-09T23:58:44.382Z,-8.58
